sensor_id;sensor_type;location;lat;lon;timestamp;P1;durP1;ratioP1;P2;durP2;ratioP2
4409;SDS011;2218;51.408;7.208;2022-09-12T00:01:27;1.03;;;0.93;;
4409;SDS011;2218;51.408;7.208;2022-09-12T00:03:55;1.23;;;1.13;;
4409;SDS011;2218;51.408;7.208;2022-09-12T00:06:27;1.50;;;1.40;;
4409;SDS011;2218;51.408;7.208;2022-09-12T00:08:57;1.00;;;0.90;;
4409;SDS011;2218;51.408;7.208;2022-09-12T00:11:27;1.10;;;1.00;;
4409;SDS011;2218;51.408;7.208;2022-09-12T00:13:54;1.20;;;1.10;;
4409;SDS011;2218;51.408;7.208;2022-09-12T00:16:27;0.90;;;0.90;;
4409;SDS011;2218;51.408;7.208;2022-09-12T00:18:57;1.00;;;1.00;;
4409;SDS011;2218;51.408;7.208;2022-09-12T00:21:25;1.10;;;1.00;;
4409;SDS011;2218;51.408;7.208;2022-09-12T00:23:53;1.10;;;1.00;;
4409;SDS011;2218;51.408;7.208;2022-09-12T00:26:20;0.80;;;0.80;;
4409;SDS011;2218;51.408;7.208;2022-09-12T00:28:47;0.93;;;0.93;;
4409;SDS011;2218;51.408;7.208;2022-09-12T00:31:16;1.23;;;1.13;;
4409;SDS011;2218;51.408;7.208;2022-09-12T00:33:49;1.07;;;1.00;;
4409;SDS011;2218;51.408;7.208;2022-09-12T00:36:17;0.90;;;0.90;;
4409;SDS011;2218;51.408;7.208;2022-09-12T00:38:47;0.97;;;0.83;;
4409;SDS011;2218;51.408;7.208;2022-09-12T00:41:15;0.97;;;0.87;;
4409;SDS011;2218;51.408;7.208;2022-09-12T00:43:45;1.10;;;1.00;;
4409;SDS011;2218;51.408;7.208;2022-09-12T00:46:22;0.90;;;0.80;;
4409;SDS011;2218;51.408;7.208;2022-09-12T00:49:02;1.00;;;0.87;;
4409;SDS011;2218;51.408;7.208;2022-09-12T00:51:50;0.90;;;0.90;;
4409;SDS011;2218;51.408;7.208;2022-09-12T00:54:24;1.10;;;0.90;;
4409;SDS011;2218;51.408;7.208;2022-09-12T00:56:58;1.00;;;0.90;;
4409;SDS011;2218;51.408;7.208;2022-09-12T00:59:30;1.10;;;1.00;;
4409;SDS011;2218;51.408;7.208;2022-09-12T01:02:04;0.80;;;0.80;;
4409;SDS011;2218;51.408;7.208;2022-09-12T01:04:34;1.40;;;1.30;;
4409;SDS011;2218;51.408;7.208;2022-09-12T01:07:03;0.80;;;0.70;;
4409;SDS011;2218;51.408;7.208;2022-09-12T01:09:32;0.80;;;0.80;;
4409;SDS011;2218;51.408;7.208;2022-09-12T01:12:01;0.90;;;0.90;;
4409;SDS011;2218;51.408;7.208;2022-09-12T01:14:29;1.00;;;0.90;;
4409;SDS011;2218;51.408;7.208;2022-09-12T01:16:57;1.00;;;0.90;;
4409;SDS011;2218;51.408;7.208;2022-09-12T01:19:31;0.97;;;0.93;;
4409;SDS011;2218;51.408;7.208;2022-09-12T01:22:43;1.00;;;0.90;;
4409;SDS011;2218;51.408;7.208;2022-09-12T01:25:43;0.80;;;0.73;;
4409;SDS011;2218;51.408;7.208;2022-09-12T01:28:36;0.80;;;0.80;;
4409;SDS011;2218;51.408;7.208;2022-09-12T01:31:21;0.90;;;0.90;;
4409;SDS011;2218;51.408;7.208;2022-09-12T01:34:02;0.80;;;0.70;;
4409;SDS011;2218;51.408;7.208;2022-09-12T01:36:42;0.97;;;0.87;;
4409;SDS011;2218;51.408;7.208;2022-09-12T01:39:28;0.90;;;0.90;;
4409;SDS011;2218;51.408;7.208;2022-09-12T01:42:08;0.87;;;0.87;;
4409;SDS011;2218;51.408;7.208;2022-09-12T01:44:47;0.80;;;0.73;;
4409;SDS011;2218;51.408;7.208;2022-09-12T01:47:29;0.90;;;0.90;;
4409;SDS011;2218;51.408;7.208;2022-09-12T01:50:06;0.80;;;0.70;;
4409;SDS011;2218;51.408;7.208;2022-09-12T01:52:41;0.90;;;0.90;;
4409;SDS011;2218;51.408;7.208;2022-09-12T01:55:15;0.90;;;0.73;;
4409;SDS011;2218;51.408;7.208;2022-09-12T01:57:48;0.90;;;0.80;;
4409;SDS011;2218;51.408;7.208;2022-09-12T02:00:21;0.80;;;0.80;;
4409;SDS011;2218;51.408;7.208;2022-09-12T02:02:51;0.83;;;0.83;;
4409;SDS011;2218;51.408;7.208;2022-09-12T02:05:27;0.80;;;0.70;;
4409;SDS011;2218;51.408;7.208;2022-09-12T02:08:01;0.80;;;0.80;;
4409;SDS011;2218;51.408;7.208;2022-09-12T02:10:35;0.80;;;0.80;;
4409;SDS011;2218;51.408;7.208;2022-09-12T02:13:11;0.90;;;0.80;;
4409;SDS011;2218;51.408;7.208;2022-09-12T02:15:44;0.90;;;0.80;;
4409;SDS011;2218;51.408;7.208;2022-09-12T02:18:20;0.80;;;0.70;;
4409;SDS011;2218;51.408;7.208;2022-09-12T02:20:48;0.80;;;0.70;;
4409;SDS011;2218;51.408;7.208;2022-09-12T02:23:18;0.80;;;0.70;;
4409;SDS011;2218;51.408;7.208;2022-09-12T02:25:51;0.80;;;0.70;;
4409;SDS011;2218;51.408;7.208;2022-09-12T02:28:26;0.80;;;0.70;;
4409;SDS011;2218;51.408;7.208;2022-09-12T02:30:58;0.83;;;0.83;;
4409;SDS011;2218;51.408;7.208;2022-09-12T02:33:41;1.10;;;1.00;;
4409;SDS011;2218;51.408;7.208;2022-09-12T02:36:16;1.10;;;1.00;;
4409;SDS011;2218;51.408;7.208;2022-09-12T02:38:58;0.80;;;0.77;;
4409;SDS011;2218;51.408;7.208;2022-09-12T02:41:25;0.80;;;0.80;;
4409;SDS011;2218;51.408;7.208;2022-09-12T02:43:53;0.70;;;0.70;;
4409;SDS011;2218;51.408;7.208;2022-09-12T02:46:21;0.80;;;0.77;;
4409;SDS011;2218;51.408;7.208;2022-09-12T02:48:56;0.80;;;0.70;;
4409;SDS011;2218;51.408;7.208;2022-09-12T02:51:23;0.90;;;0.90;;
4409;SDS011;2218;51.408;7.208;2022-09-12T02:53:51;0.80;;;0.80;;
4409;SDS011;2218;51.408;7.208;2022-09-12T02:56:20;0.80;;;0.80;;
4409;SDS011;2218;51.408;7.208;2022-09-12T02:58:53;0.80;;;0.67;;
4409;SDS011;2218;51.408;7.208;2022-09-12T03:01:28;0.80;;;0.80;;
4409;SDS011;2218;51.408;7.208;2022-09-12T03:04:21;0.80;;;0.70;;
4409;SDS011;2218;51.408;7.208;2022-09-12T03:07:11;0.80;;;0.70;;
4409;SDS011;2218;51.408;7.208;2022-09-12T03:09:52;1.00;;;0.90;;
4409;SDS011;2218;51.408;7.208;2022-09-12T03:12:35;0.90;;;0.70;;
4409;SDS011;2218;51.408;7.208;2022-09-12T03:15:21;0.80;;;0.70;;
4409;SDS011;2218;51.408;7.208;2022-09-12T03:18:09;0.80;;;0.60;;
4409;SDS011;2218;51.408;7.208;2022-09-12T03:20:54;0.93;;;0.93;;
4409;SDS011;2218;51.408;7.208;2022-09-12T03:23:29;0.80;;;0.60;;
4409;SDS011;2218;51.408;7.208;2022-09-12T03:26:04;0.80;;;0.70;;
4409;SDS011;2218;51.408;7.208;2022-09-12T03:28:38;0.80;;;0.70;;
4409;SDS011;2218;51.408;7.208;2022-09-12T03:31:10;0.80;;;0.67;;
4409;SDS011;2218;51.408;7.208;2022-09-12T03:33:39;0.80;;;0.70;;
4409;SDS011;2218;51.408;7.208;2022-09-12T03:36:10;0.80;;;0.80;;
4409;SDS011;2218;51.408;7.208;2022-09-12T03:38:44;0.70;;;0.60;;
4409;SDS011;2218;51.408;7.208;2022-09-12T03:41:11;0.80;;;0.60;;
4409;SDS011;2218;51.408;7.208;2022-09-12T03:43:38;0.80;;;0.80;;
4409;SDS011;2218;51.408;7.208;2022-09-12T03:46:05;0.80;;;0.60;;
4409;SDS011;2218;51.408;7.208;2022-09-12T03:48:32;0.87;;;0.87;;
4409;SDS011;2218;51.408;7.208;2022-09-12T03:50:59;0.70;;;0.50;;
4409;SDS011;2218;51.408;7.208;2022-09-12T03:53:28;1.10;;;1.00;;
4409;SDS011;2218;51.408;7.208;2022-09-12T03:55:55;0.80;;;0.70;;
4409;SDS011;2218;51.408;7.208;2022-09-12T03:58:23;0.80;;;0.80;;
4409;SDS011;2218;51.408;7.208;2022-09-12T04:00:54;0.70;;;0.60;;
4409;SDS011;2218;51.408;7.208;2022-09-12T04:03:21;0.80;;;0.63;;
4409;SDS011;2218;51.408;7.208;2022-09-12T04:05:48;0.90;;;0.70;;
4409;SDS011;2218;51.408;7.208;2022-09-12T04:08:15;0.70;;;0.60;;
4409;SDS011;2218;51.408;7.208;2022-09-12T04:10:43;0.80;;;0.70;;
4409;SDS011;2218;51.408;7.208;2022-09-12T04:13:10;1.00;;;0.90;;
4409;SDS011;2218;51.408;7.208;2022-09-12T04:15:36;0.80;;;0.60;;
4409;SDS011;2218;51.408;7.208;2022-09-12T04:18:03;0.70;;;0.60;;
4409;SDS011;2218;51.408;7.208;2022-09-12T04:20:30;0.80;;;0.80;;
4409;SDS011;2218;51.408;7.208;2022-09-12T04:22:57;0.77;;;0.70;;
4409;SDS011;2218;51.408;7.208;2022-09-12T04:25:24;0.70;;;0.70;;
4409;SDS011;2218;51.408;7.208;2022-09-12T04:27:53;0.80;;;0.70;;
4409;SDS011;2218;51.408;7.208;2022-09-12T04:30:20;0.80;;;0.60;;
4409;SDS011;2218;51.408;7.208;2022-09-12T04:32:47;0.80;;;0.70;;
4409;SDS011;2218;51.408;7.208;2022-09-12T04:35:14;0.80;;;0.73;;
4409;SDS011;2218;51.408;7.208;2022-09-12T04:37:41;0.70;;;0.47;;
4409;SDS011;2218;51.408;7.208;2022-09-12T04:40:08;0.80;;;0.60;;
4409;SDS011;2218;51.408;7.208;2022-09-12T04:42:35;0.80;;;0.60;;
4409;SDS011;2218;51.408;7.208;2022-09-12T04:45:04;0.80;;;0.70;;
4409;SDS011;2218;51.408;7.208;2022-09-12T04:47:32;0.80;;;0.73;;
4409;SDS011;2218;51.408;7.208;2022-09-12T04:49:59;0.80;;;0.70;;
4409;SDS011;2218;51.408;7.208;2022-09-12T04:52:26;0.80;;;0.67;;
4409;SDS011;2218;51.408;7.208;2022-09-12T04:54:53;0.70;;;0.60;;
4409;SDS011;2218;51.408;7.208;2022-09-12T04:57:20;0.80;;;0.70;;
4409;SDS011;2218;51.408;7.208;2022-09-12T04:59:47;0.80;;;0.80;;
4409;SDS011;2218;51.408;7.208;2022-09-12T05:02:15;0.80;;;0.70;;
4409;SDS011;2218;51.408;7.208;2022-09-12T05:04:42;0.73;;;0.63;;
4409;SDS011;2218;51.408;7.208;2022-09-12T05:07:11;0.80;;;0.70;;
4409;SDS011;2218;51.408;7.208;2022-09-12T05:09:38;0.80;;;0.70;;
4409;SDS011;2218;51.408;7.208;2022-09-12T05:12:05;0.83;;;0.80;;
4409;SDS011;2218;51.408;7.208;2022-09-12T05:14:33;0.70;;;0.60;;
4409;SDS011;2218;51.408;7.208;2022-09-12T05:17:00;0.70;;;0.60;;
4409;SDS011;2218;51.408;7.208;2022-09-12T05:19:31;0.80;;;0.70;;
4409;SDS011;2218;51.408;7.208;2022-09-12T05:21:58;0.73;;;0.60;;
4409;SDS011;2218;51.408;7.208;2022-09-12T05:24:25;0.70;;;0.60;;
4409;SDS011;2218;51.408;7.208;2022-09-12T05:26:52;0.80;;;0.60;;
4409;SDS011;2218;51.408;7.208;2022-09-12T05:29:19;0.90;;;0.70;;
4409;SDS011;2218;51.408;7.208;2022-09-12T05:31:46;0.80;;;0.70;;
4409;SDS011;2218;51.408;7.208;2022-09-12T05:34:16;0.80;;;0.63;;
4409;SDS011;2218;51.408;7.208;2022-09-12T05:36:45;0.80;;;0.67;;
4409;SDS011;2218;51.408;7.208;2022-09-12T05:39:13;0.80;;;0.70;;
4409;SDS011;2218;51.408;7.208;2022-09-12T05:41:40;0.80;;;0.70;;
4409;SDS011;2218;51.408;7.208;2022-09-12T05:44:10;0.70;;;0.60;;
4409;SDS011;2218;51.408;7.208;2022-09-12T05:46:39;0.70;;;0.60;;
4409;SDS011;2218;51.408;7.208;2022-09-12T05:49:09;0.77;;;0.60;;
4409;SDS011;2218;51.408;7.208;2022-09-12T05:51:39;0.80;;;0.60;;
4409;SDS011;2218;51.408;7.208;2022-09-12T05:54:14;0.70;;;0.50;;
4409;SDS011;2218;51.408;7.208;2022-09-12T05:56:44;0.70;;;0.60;;
4409;SDS011;2218;51.408;7.208;2022-09-12T05:59:13;0.70;;;0.47;;
4409;SDS011;2218;51.408;7.208;2022-09-12T06:01:46;0.77;;;0.60;;
4409;SDS011;2218;51.408;7.208;2022-09-12T06:04:13;0.70;;;0.60;;
4409;SDS011;2218;51.408;7.208;2022-09-12T06:06:42;0.70;;;0.60;;
4409;SDS011;2218;51.408;7.208;2022-09-12T06:09:10;0.80;;;0.70;;
4409;SDS011;2218;51.408;7.208;2022-09-12T06:11:40;0.70;;;0.50;;
4409;SDS011;2218;51.408;7.208;2022-09-12T06:14:08;0.70;;;0.60;;
4409;SDS011;2218;51.408;7.208;2022-09-12T06:16:37;1.30;;;0.60;;
4409;SDS011;2218;51.408;7.208;2022-09-12T06:19:05;0.80;;;0.60;;
4409;SDS011;2218;51.408;7.208;2022-09-12T06:21:37;0.70;;;0.50;;
4409;SDS011;2218;51.408;7.208;2022-09-12T06:24:04;0.70;;;0.50;;
4409;SDS011;2218;51.408;7.208;2022-09-12T06:26:32;0.70;;;0.50;;
4409;SDS011;2218;51.408;7.208;2022-09-12T06:29:01;0.80;;;0.70;;
4409;SDS011;2218;51.408;7.208;2022-09-12T06:31:29;0.70;;;0.60;;
4409;SDS011;2218;51.408;7.208;2022-09-12T06:33:59;0.80;;;0.70;;
4409;SDS011;2218;51.408;7.208;2022-09-12T06:36:29;0.70;;;0.50;;
4409;SDS011;2218;51.408;7.208;2022-09-12T06:38:59;0.80;;;0.60;;
4409;SDS011;2218;51.408;7.208;2022-09-12T06:41:29;1.13;;;0.60;;
4409;SDS011;2218;51.408;7.208;2022-09-12T06:43:57;2.97;;;0.70;;
4409;SDS011;2218;51.408;7.208;2022-09-12T06:46:27;0.70;;;0.60;;
4409;SDS011;2218;51.408;7.208;2022-09-12T06:48:56;0.80;;;0.50;;
4409;SDS011;2218;51.408;7.208;2022-09-12T06:51:25;2.47;;;1.90;;
4409;SDS011;2218;51.408;7.208;2022-09-12T06:53:53;1.40;;;1.30;;
4409;SDS011;2218;51.408;7.208;2022-09-12T06:56:22;2.43;;;2.33;;
4409;SDS011;2218;51.408;7.208;2022-09-12T06:58:51;3.63;;;2.13;;
4409;SDS011;2218;51.408;7.208;2022-09-12T07:01:25;1.20;;;1.10;;
4409;SDS011;2218;51.408;7.208;2022-09-12T07:03:54;5.93;;;1.00;;
4409;SDS011;2218;51.408;7.208;2022-09-12T07:06:23;2.40;;;2.30;;
4409;SDS011;2218;51.408;7.208;2022-09-12T07:08:55;2.43;;;2.27;;
4409;SDS011;2218;51.408;7.208;2022-09-12T07:11:24;2.90;;;2.70;;
4409;SDS011;2218;51.408;7.208;2022-09-12T07:13:55;3.03;;;2.73;;
4409;SDS011;2218;51.408;7.208;2022-09-12T07:16:25;3.53;;;2.80;;
4409;SDS011;2218;51.408;7.208;2022-09-12T07:18:54;3.70;;;3.40;;
4409;SDS011;2218;51.408;7.208;2022-09-12T07:21:23;4.40;;;3.33;;
4409;SDS011;2218;51.408;7.208;2022-09-12T07:23:50;4.10;;;3.40;;
4409;SDS011;2218;51.408;7.208;2022-09-12T07:26:19;5.27;;;3.70;;
4409;SDS011;2218;51.408;7.208;2022-09-12T07:28:49;5.87;;;4.07;;
4409;SDS011;2218;51.408;7.208;2022-09-12T07:31:19;4.23;;;3.83;;
4409;SDS011;2218;51.408;7.208;2022-09-12T07:33:49;5.50;;;4.00;;
4409;SDS011;2218;51.408;7.208;2022-09-12T07:36:17;5.93;;;3.90;;
4409;SDS011;2218;51.408;7.208;2022-09-12T07:38:47;5.30;;;3.63;;
4409;SDS011;2218;51.408;7.208;2022-09-12T07:41:20;5.70;;;4.43;;
4409;SDS011;2218;51.408;7.208;2022-09-12T07:43:50;8.93;;;4.10;;
4409;SDS011;2218;51.408;7.208;2022-09-12T07:46:18;5.20;;;4.20;;
4409;SDS011;2218;51.408;7.208;2022-09-12T07:48:50;7.70;;;4.30;;
4409;SDS011;2218;51.408;7.208;2022-09-12T07:51:19;5.33;;;4.83;;
4409;SDS011;2218;51.408;7.208;2022-09-12T07:53:47;5.27;;;4.27;;
4409;SDS011;2218;51.408;7.208;2022-09-12T07:56:16;5.33;;;4.80;;
4409;SDS011;2218;51.408;7.208;2022-09-12T07:58:45;5.07;;;4.57;;
4409;SDS011;2218;51.408;7.208;2022-09-12T08:01:13;8.03;;;4.97;;
4409;SDS011;2218;51.408;7.208;2022-09-12T08:03:43;5.13;;;4.63;;
4409;SDS011;2218;51.408;7.208;2022-09-12T08:06:13;5.97;;;4.60;;
4409;SDS011;2218;51.408;7.208;2022-09-12T08:08:44;4.93;;;4.53;;
4409;SDS011;2218;51.408;7.208;2022-09-12T08:11:13;5.10;;;4.60;;
4409;SDS011;2218;51.408;7.208;2022-09-12T08:13:42;4.70;;;4.30;;
4409;SDS011;2218;51.408;7.208;2022-09-12T08:16:10;4.27;;;3.87;;
4409;SDS011;2218;51.408;7.208;2022-09-12T08:18:43;5.97;;;3.80;;
4409;SDS011;2218;51.408;7.208;2022-09-12T08:21:11;5.10;;;4.60;;
4409;SDS011;2218;51.408;7.208;2022-09-12T08:23:41;6.63;;;4.10;;
4409;SDS011;2218;51.408;7.208;2022-09-12T08:26:10;5.70;;;4.57;;
4409;SDS011;2218;51.408;7.208;2022-09-12T08:28:38;4.47;;;3.87;;
4409;SDS011;2218;51.408;7.208;2022-09-12T08:31:10;5.30;;;3.73;;
4409;SDS011;2218;51.408;7.208;2022-09-12T08:33:39;8.70;;;4.07;;
4409;SDS011;2218;51.408;7.208;2022-09-12T08:36:07;6.40;;;3.90;;
4409;SDS011;2218;51.408;7.208;2022-09-12T08:38:39;7.73;;;4.90;;
4409;SDS011;2218;51.408;7.208;2022-09-12T08:41:18;5.97;;;5.07;;
4409;SDS011;2218;51.408;7.208;2022-09-12T08:47:17;6.50;;;5.03;;
4409;SDS011;2218;51.408;7.208;2022-09-12T08:49:56;5.80;;;5.00;;
4409;SDS011;2218;51.408;7.208;2022-09-12T08:52:33;5.83;;;4.63;;
4409;SDS011;2218;51.408;7.208;2022-09-12T08:55:12;4.80;;;4.40;;
4409;SDS011;2218;51.408;7.208;2022-09-12T08:58:01;7.27;;;4.57;;
4409;SDS011;2218;51.408;7.208;2022-09-12T09:00:45;4.00;;;3.53;;
4409;SDS011;2218;51.408;7.208;2022-09-12T09:03:29;4.90;;;4.40;;
4409;SDS011;2218;51.408;7.208;2022-09-12T09:06:33;5.20;;;3.80;;
4409;SDS011;2218;51.408;7.208;2022-09-12T09:09:24;5.83;;;4.20;;
4409;SDS011;2218;51.408;7.208;2022-09-12T09:12:13;5.97;;;4.20;;
4409;SDS011;2218;51.408;7.208;2022-09-12T09:14:57;7.50;;;4.67;;
4409;SDS011;2218;51.408;7.208;2022-09-12T09:17:38;5.17;;;4.67;;
4409;SDS011;2218;51.408;7.208;2022-09-12T09:20:13;5.43;;;4.93;;
4409;SDS011;2218;51.408;7.208;2022-09-12T09:22:53;5.10;;;4.60;;
4409;SDS011;2218;51.408;7.208;2022-09-12T09:25:44;6.60;;;4.80;;
4409;SDS011;2218;51.408;7.208;2022-09-12T09:28:24;5.60;;;4.83;;
4409;SDS011;2218;51.408;7.208;2022-09-12T09:30:59;7.60;;;4.50;;
4409;SDS011;2218;51.408;7.208;2022-09-12T09:33:27;3.97;;;3.17;;
4409;SDS011;2218;51.408;7.208;2022-09-12T09:36:01;2.03;;;1.93;;
4409;SDS011;2218;51.408;7.208;2022-09-12T09:38:45;2.33;;;2.13;;
4409;SDS011;2218;51.408;7.208;2022-09-12T09:41:18;2.43;;;1.57;;
4409;SDS011;2218;51.408;7.208;2022-09-12T09:44:04;2.40;;;1.80;;
4409;SDS011;2218;51.408;7.208;2022-09-12T09:46:31;1.73;;;1.63;;
4409;SDS011;2218;51.408;7.208;2022-09-12T09:48:59;1.83;;;1.67;;
4409;SDS011;2218;51.408;7.208;2022-09-12T09:51:31;3.10;;;1.33;;
4409;SDS011;2218;51.408;7.208;2022-09-12T09:54:02;1.23;;;1.13;;
4409;SDS011;2218;51.408;7.208;2022-09-12T09:56:46;1.20;;;1.10;;
4409;SDS011;2218;51.408;7.208;2022-09-12T09:59:15;1.13;;;1.03;;
4409;SDS011;2218;51.408;7.208;2022-09-12T10:01:46;1.30;;;1.20;;
4409;SDS011;2218;51.408;7.208;2022-09-12T10:04:19;1.20;;;1.10;;
4409;SDS011;2218;51.408;7.208;2022-09-12T10:06:50;0.97;;;0.97;;
4409;SDS011;2218;51.408;7.208;2022-09-12T10:09:23;1.40;;;1.30;;
4409;SDS011;2218;51.408;7.208;2022-09-12T10:11:53;1.10;;;0.90;;
4409;SDS011;2218;51.408;7.208;2022-09-12T10:14:37;1.17;;;1.07;;
4409;SDS011;2218;51.408;7.208;2022-09-12T10:17:22;1.20;;;1.10;;
4409;SDS011;2218;51.408;7.208;2022-09-12T10:19:53;1.10;;;0.90;;
4409;SDS011;2218;51.408;7.208;2022-09-12T10:22:22;0.80;;;0.70;;
4409;SDS011;2218;51.408;7.208;2022-09-12T10:24:55;1.40;;;0.70;;
4409;SDS011;2218;51.408;7.208;2022-09-12T10:27:27;2.70;;;0.70;;
4409;SDS011;2218;51.408;7.208;2022-09-12T10:30:01;1.10;;;0.67;;
4409;SDS011;2218;51.408;7.208;2022-09-12T10:32:41;0.80;;;0.70;;
4409;SDS011;2218;51.408;7.208;2022-09-12T10:35:15;2.40;;;0.70;;
4409;SDS011;2218;51.408;7.208;2022-09-12T10:37:55;0.80;;;0.70;;
4409;SDS011;2218;51.408;7.208;2022-09-12T10:40:26;0.90;;;0.77;;
4409;SDS011;2218;51.408;7.208;2022-09-12T10:42:57;0.80;;;0.70;;
4409;SDS011;2218;51.408;7.208;2022-09-12T10:45:28;0.70;;;0.50;;
4409;SDS011;2218;51.408;7.208;2022-09-12T10:48:00;1.00;;;0.70;;
4409;SDS011;2218;51.408;7.208;2022-09-12T10:50:47;1.30;;;1.20;;
4409;SDS011;2218;51.408;7.208;2022-09-12T10:53:18;1.73;;;1.63;;
4409;SDS011;2218;51.408;7.208;2022-09-12T10:55:52;1.57;;;1.47;;
4409;SDS011;2218;51.408;7.208;2022-09-12T10:58:38;1.50;;;1.40;;
4409;SDS011;2218;51.408;7.208;2022-09-12T11:01:36;1.20;;;1.10;;
4409;SDS011;2218;51.408;7.208;2022-09-12T11:04:19;1.53;;;1.30;;
4409;SDS011;2218;51.408;7.208;2022-09-12T11:06:57;1.27;;;1.17;;
4409;SDS011;2218;51.408;7.208;2022-09-12T11:09:44;1.27;;;1.17;;
4409;SDS011;2218;51.408;7.208;2022-09-12T11:12:24;2.43;;;2.23;;
4409;SDS011;2218;51.408;7.208;2022-09-12T11:15:06;2.00;;;1.90;;
4409;SDS011;2218;51.408;7.208;2022-09-12T11:17:57;1.73;;;1.63;;
4409;SDS011;2218;51.408;7.208;2022-09-12T11:20:39;5.03;;;1.80;;
4409;SDS011;2218;51.408;7.208;2022-09-12T11:23:26;2.00;;;1.90;;
4409;SDS011;2218;51.408;7.208;2022-09-12T11:26:25;1.80;;;1.70;;
4409;SDS011;2218;51.408;7.208;2022-09-12T11:29:15;1.83;;;1.63;;
4409;SDS011;2218;51.408;7.208;2022-09-12T11:32:04;1.50;;;1.40;;
4409;SDS011;2218;51.408;7.208;2022-09-12T11:34:59;0.90;;;0.90;;
4409;SDS011;2218;51.408;7.208;2022-09-12T11:37:42;1.10;;;1.00;;
4409;SDS011;2218;51.408;7.208;2022-09-12T11:40:33;2.17;;;0.83;;
4409;SDS011;2218;51.408;7.208;2022-09-12T11:43:12;1.10;;;1.00;;
4409;SDS011;2218;51.408;7.208;2022-09-12T11:45:51;2.27;;;2.07;;
4409;SDS011;2218;51.408;7.208;2022-09-12T11:48:22;2.30;;;1.80;;
4409;SDS011;2218;51.408;7.208;2022-09-12T11:51:03;1.67;;;1.57;;
4409;SDS011;2218;51.408;7.208;2022-09-12T11:53:40;1.50;;;1.40;;
4409;SDS011;2218;51.408;7.208;2022-09-12T11:56:16;3.50;;;1.87;;
4409;SDS011;2218;51.408;7.208;2022-09-12T11:58:45;2.07;;;1.70;;
4409;SDS011;2218;51.408;7.208;2022-09-12T12:01:24;1.60;;;1.50;;
4409;SDS011;2218;51.408;7.208;2022-09-12T12:03:57;2.03;;;1.30;;
4409;SDS011;2218;51.408;7.208;2022-09-12T12:06:35;1.60;;;1.50;;
4409;SDS011;2218;51.408;7.208;2022-09-12T12:09:14;1.47;;;1.37;;
4409;SDS011;2218;51.408;7.208;2022-09-12T12:11:42;3.37;;;1.50;;
4409;SDS011;2218;51.408;7.208;2022-09-12T12:14:17;1.70;;;1.60;;
4409;SDS011;2218;51.408;7.208;2022-09-12T12:16:48;1.30;;;1.20;;
4409;SDS011;2218;51.408;7.208;2022-09-12T12:22:05;1.47;;;1.37;;
4409;SDS011;2218;51.408;7.208;2022-09-12T12:25:01;2.77;;;1.70;;
4409;SDS011;2218;51.408;7.208;2022-09-12T12:27:50;2.20;;;1.60;;
4409;SDS011;2218;51.408;7.208;2022-09-12T12:36:29;1.93;;;1.83;;
4409;SDS011;2218;51.408;7.208;2022-09-12T12:45:58;1.77;;;1.67;;
4409;SDS011;2218;51.408;7.208;2022-09-12T12:48:34;3.97;;;1.50;;
4409;SDS011;2218;51.408;7.208;2022-09-12T12:51:37;1.60;;;1.50;;
4409;SDS011;2218;51.408;7.208;2022-09-12T12:57:23;1.93;;;1.83;;
4409;SDS011;2218;51.408;7.208;2022-09-12T13:00:24;2.20;;;2.00;;
4409;SDS011;2218;51.408;7.208;2022-09-12T13:03:00;2.40;;;2.20;;
4409;SDS011;2218;51.408;7.208;2022-09-12T13:05:43;2.50;;;2.40;;
4409;SDS011;2218;51.408;7.208;2022-09-12T13:08:24;2.23;;;2.10;;
4409;SDS011;2218;51.408;7.208;2022-09-12T13:10:57;2.20;;;2.10;;
4409;SDS011;2218;51.408;7.208;2022-09-12T13:13:29;2.10;;;2.00;;
4409;SDS011;2218;51.408;7.208;2022-09-12T13:16:03;2.10;;;2.00;;
4409;SDS011;2218;51.408;7.208;2022-09-12T13:18:37;2.37;;;2.27;;
4409;SDS011;2218;51.408;7.208;2022-09-12T13:21:11;2.20;;;1.97;;
4409;SDS011;2218;51.408;7.208;2022-09-12T13:23:40;1.90;;;1.60;;
4409;SDS011;2218;51.408;7.208;2022-09-12T13:26:09;2.00;;;1.73;;
4409;SDS011;2218;51.408;7.208;2022-09-12T13:28:38;5.07;;;1.70;;
4409;SDS011;2218;51.408;7.208;2022-09-12T13:31:08;2.30;;;1.60;;
4409;SDS011;2218;51.408;7.208;2022-09-12T13:33:47;1.73;;;1.57;;
4409;SDS011;2218;51.408;7.208;2022-09-12T13:36:26;2.17;;;1.83;;
4409;SDS011;2218;51.408;7.208;2022-09-12T13:39:23;1.73;;;1.63;;
4409;SDS011;2218;51.408;7.208;2022-09-12T13:42:01;1.70;;;1.60;;
4409;SDS011;2218;51.408;7.208;2022-09-12T13:45:03;1.20;;;1.10;;
4409;SDS011;2218;51.408;7.208;2022-09-12T13:47:38;3.87;;;1.30;;
4409;SDS011;2218;51.408;7.208;2022-09-12T13:50:12;3.60;;;1.50;;
4409;SDS011;2218;51.408;7.208;2022-09-12T13:52:45;3.53;;;1.33;;
4409;SDS011;2218;51.408;7.208;2022-09-12T13:55:26;1.80;;;1.37;;
4409;SDS011;2218;51.408;7.208;2022-09-12T13:57:57;1.63;;;1.40;;
4409;SDS011;2218;51.408;7.208;2022-09-12T14:00:27;1.27;;;1.17;;
4409;SDS011;2218;51.408;7.208;2022-09-12T14:02:56;1.30;;;1.10;;
4409;SDS011;2218;51.408;7.208;2022-09-12T14:05:44;1.53;;;1.27;;
4409;SDS011;2218;51.408;7.208;2022-09-12T14:08:21;1.30;;;1.20;;
4409;SDS011;2218;51.408;7.208;2022-09-12T14:10:50;1.20;;;1.10;;
4409;SDS011;2218;51.408;7.208;2022-09-12T14:13:18;2.33;;;1.60;;
4409;SDS011;2218;51.408;7.208;2022-09-12T14:15:50;4.83;;;1.10;;
4409;SDS011;2218;51.408;7.208;2022-09-12T14:18:21;1.40;;;0.90;;
4409;SDS011;2218;51.408;7.208;2022-09-12T14:20:52;1.67;;;1.10;;
4409;SDS011;2218;51.408;7.208;2022-09-12T14:23:26;1.77;;;1.53;;
4409;SDS011;2218;51.408;7.208;2022-09-12T14:25:56;2.80;;;1.00;;
4409;SDS011;2218;51.408;7.208;2022-09-12T14:28:27;1.10;;;1.00;;
4409;SDS011;2218;51.408;7.208;2022-09-12T14:30:56;1.50;;;1.20;;
4409;SDS011;2218;51.408;7.208;2022-09-12T14:33:27;1.30;;;1.00;;
4409;SDS011;2218;51.408;7.208;2022-09-12T14:36:07;1.20;;;1.10;;
4409;SDS011;2218;51.408;7.208;2022-09-12T14:38:45;1.43;;;1.23;;
4409;SDS011;2218;51.408;7.208;2022-09-12T14:41:21;2.53;;;1.23;;
4409;SDS011;2218;51.408;7.208;2022-09-12T14:43:54;1.37;;;1.17;;
4409;SDS011;2218;51.408;7.208;2022-09-12T14:46:26;1.23;;;1.13;;
4409;SDS011;2218;51.408;7.208;2022-09-12T14:48:59;1.00;;;0.90;;
4409;SDS011;2218;51.408;7.208;2022-09-12T14:51:36;0.80;;;0.80;;
4409;SDS011;2218;51.408;7.208;2022-09-12T14:54:20;1.00;;;0.90;;
4409;SDS011;2218;51.408;7.208;2022-09-12T14:57:27;2.83;;;1.00;;
4409;SDS011;2218;51.408;7.208;2022-09-12T15:00:16;1.17;;;1.07;;
4409;SDS011;2218;51.408;7.208;2022-09-12T15:02:47;1.13;;;0.97;;
4409;SDS011;2218;51.408;7.208;2022-09-12T15:05:18;1.13;;;1.07;;
4409;SDS011;2218;51.408;7.208;2022-09-12T15:07:59;1.23;;;1.13;;
4409;SDS011;2218;51.408;7.208;2022-09-12T15:10:27;1.10;;;1.00;;
4409;SDS011;2218;51.408;7.208;2022-09-12T15:15:48;1.57;;;1.27;;
4409;SDS011;2218;51.408;7.208;2022-09-12T15:18:18;1.67;;;1.30;;
4409;SDS011;2218;51.408;7.208;2022-09-12T15:20:46;1.13;;;1.03;;
4409;SDS011;2218;51.408;7.208;2022-09-12T15:23:19;1.27;;;1.17;;
4409;SDS011;2218;51.408;7.208;2022-09-12T15:25:56;0.90;;;0.80;;
4409;SDS011;2218;51.408;7.208;2022-09-12T15:28:23;1.00;;;0.90;;
4409;SDS011;2218;51.408;7.208;2022-09-12T15:30:51;1.73;;;0.90;;
4409;SDS011;2218;51.408;7.208;2022-09-12T15:33:22;0.80;;;0.80;;
4409;SDS011;2218;51.408;7.208;2022-09-12T15:35:50;2.07;;;1.20;;
4409;SDS011;2218;51.408;7.208;2022-09-12T15:38:19;1.17;;;1.07;;
4409;SDS011;2218;51.408;7.208;2022-09-12T15:40:48;0.83;;;0.83;;
4409;SDS011;2218;51.408;7.208;2022-09-12T15:43:17;0.80;;;0.80;;
4409;SDS011;2218;51.408;7.208;2022-09-12T15:45:45;0.93;;;0.83;;
4409;SDS011;2218;51.408;7.208;2022-09-12T15:48:16;1.00;;;0.90;;
4409;SDS011;2218;51.408;7.208;2022-09-12T15:50:43;1.13;;;1.03;;
4409;SDS011;2218;51.408;7.208;2022-09-12T15:53:12;1.03;;;0.93;;
4409;SDS011;2218;51.408;7.208;2022-09-12T15:55:42;1.10;;;0.80;;
4409;SDS011;2218;51.408;7.208;2022-09-12T15:58:10;0.90;;;0.80;;
4409;SDS011;2218;51.408;7.208;2022-09-12T16:00:38;1.00;;;0.87;;
4409;SDS011;2218;51.408;7.208;2022-09-12T16:03:05;0.80;;;0.80;;
4409;SDS011;2218;51.408;7.208;2022-09-12T16:05:32;0.90;;;0.90;;
4409;SDS011;2218;51.408;7.208;2022-09-12T16:07:59;1.00;;;0.90;;
4409;SDS011;2218;51.408;7.208;2022-09-12T16:10:27;0.70;;;0.70;;
4409;SDS011;2218;51.408;7.208;2022-09-12T16:12:57;0.87;;;0.87;;
4409;SDS011;2218;51.408;7.208;2022-09-12T16:15:24;1.00;;;1.00;;
4409;SDS011;2218;51.408;7.208;2022-09-12T16:17:51;0.80;;;0.80;;
4409;SDS011;2218;51.408;7.208;2022-09-12T16:20:19;1.07;;;0.97;;